sensor_id;sensor_type;location;lat;lon;timestamp;temperature;humidity
1568;DHT22;777;47.156;8.326;2022-08-19T00:00:18;16.60;99.90
1568;DHT22;777;47.156;8.326;2022-08-19T00:02:45;16.60;99.90
1568;DHT22;777;47.156;8.326;2022-08-19T00:05:14;16.60;99.90
1568;DHT22;777;47.156;8.326;2022-08-19T00:07:41;16.60;99.90
1568;DHT22;777;47.156;8.326;2022-08-19T00:10:12;16.60;99.90
1568;DHT22;777;47.156;8.326;2022-08-19T00:12:40;16.60;99.90
1568;DHT22;777;47.156;8.326;2022-08-19T00:15:10;16.50;99.90
1568;DHT22;777;47.156;8.326;2022-08-19T00:17:38;16.60;99.90
1568;DHT22;777;47.156;8.326;2022-08-19T00:20:07;16.50;99.90
1568;DHT22;777;47.156;8.326;2022-08-19T00:22:36;16.50;99.90
1568;DHT22;777;47.156;8.326;2022-08-19T00:25:04;16.50;99.90
1568;DHT22;777;47.156;8.326;2022-08-19T00:27:33;16.60;99.90
1568;DHT22;777;47.156;8.326;2022-08-19T00:30:01;16.50;99.90
1568;DHT22;777;47.156;8.326;2022-08-19T00:32:29;16.50;99.90
1568;DHT22;777;47.156;8.326;2022-08-19T00:34:56;16.50;99.90
1568;DHT22;777;47.156;8.326;2022-08-19T00:37:24;16.50;99.90
1568;DHT22;777;47.156;8.326;2022-08-19T00:39:52;16.50;99.90
1568;DHT22;777;47.156;8.326;2022-08-19T00:42:20;16.40;99.90
1568;DHT22;777;47.156;8.326;2022-08-19T00:44:49;16.50;99.90
1568;DHT22;777;47.156;8.326;2022-08-19T00:47:17;16.40;99.90
1568;DHT22;777;47.156;8.326;2022-08-19T00:49:56;16.40;99.90
1568;DHT22;777;47.156;8.326;2022-08-19T00:52:27;16.40;99.90
1568;DHT22;777;47.156;8.326;2022-08-19T00:54:56;16.40;99.90
1568;DHT22;777;47.156;8.326;2022-08-19T00:57:28;16.50;99.90
1568;DHT22;777;47.156;8.326;2022-08-19T00:59:58;16.40;99.90
1568;DHT22;777;47.156;8.326;2022-08-19T01:02:26;16.30;99.90
1568;DHT22;777;47.156;8.326;2022-08-19T01:04:54;16.30;99.90
1568;DHT22;777;47.156;8.326;2022-08-19T01:07:21;16.20;99.90
1568;DHT22;777;47.156;8.326;2022-08-19T01:09:48;16.20;99.90
1568;DHT22;777;47.156;8.326;2022-08-19T01:12:16;16.20;99.90
1568;DHT22;777;47.156;8.326;2022-08-19T01:14:45;16.20;99.90
1568;DHT22;777;47.156;8.326;2022-08-19T01:17:14;16.20;99.90
1568;DHT22;777;47.156;8.326;2022-08-19T01:19:43;16.20;99.90
1568;DHT22;777;47.156;8.326;2022-08-19T01:22:17;16.20;99.90
1568;DHT22;777;47.156;8.326;2022-08-19T01:24:48;16.10;99.90
1568;DHT22;777;47.156;8.326;2022-08-19T01:27:15;16.20;99.90
1568;DHT22;777;47.156;8.326;2022-08-19T01:29:44;16.10;99.90
1568;DHT22;777;47.156;8.326;2022-08-19T01:32:14;16.10;99.90
1568;DHT22;777;47.156;8.326;2022-08-19T01:34:42;16.10;99.90
1568;DHT22;777;47.156;8.326;2022-08-19T01:37:14;16.10;99.90
1568;DHT22;777;47.156;8.326;2022-08-19T01:39:42;16.10;99.90
1568;DHT22;777;47.156;8.326;2022-08-19T01:42:11;16.10;99.90
1568;DHT22;777;47.156;8.326;2022-08-19T01:44:39;16.10;99.90
1568;DHT22;777;47.156;8.326;2022-08-19T01:47:07;16.10;99.90
1568;DHT22;777;47.156;8.326;2022-08-19T01:49:36;16.10;99.90
1568;DHT22;777;47.156;8.326;2022-08-19T01:52:04;16.10;99.90
1568;DHT22;777;47.156;8.326;2022-08-19T01:54:32;16.10;99.90
1568;DHT22;777;47.156;8.326;2022-08-19T01:57:09;16.20;99.90
1568;DHT22;777;47.156;8.326;2022-08-19T01:59:39;16.10;99.90
1568;DHT22;777;47.156;8.326;2022-08-19T02:02:06;16.10;99.90
1568;DHT22;777;47.156;8.326;2022-08-19T02:04:34;16.10;99.90
1568;DHT22;777;47.156;8.326;2022-08-19T02:07:03;16.10;99.90
1568;DHT22;777;47.156;8.326;2022-08-19T02:09:31;16.10;99.90
1568;DHT22;777;47.156;8.326;2022-08-19T02:11:58;16.10;99.90
1568;DHT22;777;47.156;8.326;2022-08-19T02:14:25;16.10;99.90
1568;DHT22;777;47.156;8.326;2022-08-19T02:16:54;16.10;99.90
1568;DHT22;777;47.156;8.326;2022-08-19T02:19:21;16.10;99.90
1568;DHT22;777;47.156;8.326;2022-08-19T02:21:49;16.10;99.90
1568;DHT22;777;47.156;8.326;2022-08-19T02:24:16;16.10;99.90
1568;DHT22;777;47.156;8.326;2022-08-19T02:26:43;16.10;99.90
1568;DHT22;777;47.156;8.326;2022-08-19T02:29:10;16.10;99.90
1568;DHT22;777;47.156;8.326;2022-08-19T02:31:37;16.10;99.90
1568;DHT22;777;47.156;8.326;2022-08-19T02:34:06;16.10;99.90
1568;DHT22;777;47.156;8.326;2022-08-19T02:36:33;16.00;99.90
1568;DHT22;777;47.156;8.326;2022-08-19T02:39:00;16.10;99.90
1568;DHT22;777;47.156;8.326;2022-08-19T02:41:28;16.10;99.90
1568;DHT22;777;47.156;8.326;2022-08-19T02:43:57;16.10;99.90
1568;DHT22;777;47.156;8.326;2022-08-19T02:46:27;16.10;99.90
1568;DHT22;777;47.156;8.326;2022-08-19T02:49:02;16.10;99.90
1568;DHT22;777;47.156;8.326;2022-08-19T02:51:33;16.10;99.90
1568;DHT22;777;47.156;8.326;2022-08-19T02:54:01;16.10;99.90
1568;DHT22;777;47.156;8.326;2022-08-19T02:56:28;16.10;99.90
1568;DHT22;777;47.156;8.326;2022-08-19T02:58:57;16.10;99.90
1568;DHT22;777;47.156;8.326;2022-08-19T03:01:27;16.10;99.90
1568;DHT22;777;47.156;8.326;2022-08-19T03:03:55;16.10;99.90
1568;DHT22;777;47.156;8.326;2022-08-19T03:06:23;16.10;99.90
1568;DHT22;777;47.156;8.326;2022-08-19T03:08:52;16.10;99.90
1568;DHT22;777;47.156;8.326;2022-08-19T03:11:21;16.10;99.90
1568;DHT22;777;47.156;8.326;2022-08-19T03:13:49;16.10;99.90
1568;DHT22;777;47.156;8.326;2022-08-19T03:16:17;16.10;99.90
1568;DHT22;777;47.156;8.326;2022-08-19T03:18:45;16.10;99.90
1568;DHT22;777;47.156;8.326;2022-08-19T03:21:15;16.10;99.90
1568;DHT22;777;47.156;8.326;2022-08-19T03:23:43;16.10;99.90
1568;DHT22;777;47.156;8.326;2022-08-19T03:26:12;16.10;99.90
1568;DHT22;777;47.156;8.326;2022-08-19T03:28:40;16.10;99.90
1568;DHT22;777;47.156;8.326;2022-08-19T03:31:10;16.10;99.90
1568;DHT22;777;47.156;8.326;2022-08-19T03:33:38;16.10;99.90
1568;DHT22;777;47.156;8.326;2022-08-19T03:36:08;16.00;99.90
1568;DHT22;777;47.156;8.326;2022-08-19T03:38:37;16.00;99.90
1568;DHT22;777;47.156;8.326;2022-08-19T03:41:06;16.00;99.90
1568;DHT22;777;47.156;8.326;2022-08-19T03:43:36;16.00;99.90
1568;DHT22;777;47.156;8.326;2022-08-19T03:46:06;16.00;99.90
1568;DHT22;777;47.156;8.326;2022-08-19T03:48:35;16.00;99.90
1568;DHT22;777;47.156;8.326;2022-08-19T03:51:03;16.10;99.90
1568;DHT22;777;47.156;8.326;2022-08-19T03:53:31;16.10;99.90
1568;DHT22;777;47.156;8.326;2022-08-19T03:55:58;16.10;99.90
1568;DHT22;777;47.156;8.326;2022-08-19T03:58:27;16.10;99.90
1568;DHT22;777;47.156;8.326;2022-08-19T04:00:56;16.20;99.90
1568;DHT22;777;47.156;8.326;2022-08-19T04:03:24;16.10;99.90
1568;DHT22;777;47.156;8.326;2022-08-19T04:05:52;16.20;99.90
1568;DHT22;777;47.156;8.326;2022-08-19T04:08:19;16.20;99.90
1568;DHT22;777;47.156;8.326;2022-08-19T04:10:48;16.30;99.90
1568;DHT22;777;47.156;8.326;2022-08-19T04:13:17;16.30;99.90
1568;DHT22;777;47.156;8.326;2022-08-19T04:15:45;16.40;99.90
1568;DHT22;777;47.156;8.326;2022-08-19T04:18:14;16.30;99.90
1568;DHT22;777;47.156;8.326;2022-08-19T04:20:43;16.40;99.90
1568;DHT22;777;47.156;8.326;2022-08-19T04:23:10;16.40;99.90
1568;DHT22;777;47.156;8.326;2022-08-19T04:25:39;16.40;99.90
1568;DHT22;777;47.156;8.326;2022-08-19T04:28:07;16.40;99.90
1568;DHT22;777;47.156;8.326;2022-08-19T04:30:39;16.40;99.90
1568;DHT22;777;47.156;8.326;2022-08-19T04:33:06;16.40;99.90
1568;DHT22;777;47.156;8.326;2022-08-19T04:35:40;16.40;99.90
1568;DHT22;777;47.156;8.326;2022-08-19T04:38:07;16.40;99.90
1568;DHT22;777;47.156;8.326;2022-08-19T04:40:40;16.40;99.90
1568;DHT22;777;47.156;8.326;2022-08-19T04:43:25;16.30;99.90
1568;DHT22;777;47.156;8.326;2022-08-19T04:45:52;16.30;99.90
1568;DHT22;777;47.156;8.326;2022-08-19T04:48:20;16.30;99.90
1568;DHT22;777;47.156;8.326;2022-08-19T04:50:54;16.30;99.90
1568;DHT22;777;47.156;8.326;2022-08-19T04:53:24;16.30;99.90
1568;DHT22;777;47.156;8.326;2022-08-19T04:55:54;16.30;99.90
1568;DHT22;777;47.156;8.326;2022-08-19T04:58:22;16.30;99.90
1568;DHT22;777;47.156;8.326;2022-08-19T05:00:49;16.30;99.90
1568;DHT22;777;47.156;8.326;2022-08-19T05:03:16;16.30;99.90
1568;DHT22;777;47.156;8.326;2022-08-19T05:05:44;16.30;99.90
1568;DHT22;777;47.156;8.326;2022-08-19T05:08:17;16.30;99.90
1568;DHT22;777;47.156;8.326;2022-08-19T05:10:47;16.30;99.90
1568;DHT22;777;47.156;8.326;2022-08-19T05:13:15;16.20;99.90
1568;DHT22;777;47.156;8.326;2022-08-19T05:15:42;16.30;99.90
1568;DHT22;777;47.156;8.326;2022-08-19T05:18:10;16.20;99.90
1568;DHT22;777;47.156;8.326;2022-08-19T05:20:54;16.30;99.90
1568;DHT22;777;47.156;8.326;2022-08-19T05:23:40;16.30;99.90
1568;DHT22;777;47.156;8.326;2022-08-19T05:26:07;16.30;99.90
1568;DHT22;777;47.156;8.326;2022-08-19T05:28:36;16.30;99.90
1568;DHT22;777;47.156;8.326;2022-08-19T05:31:03;16.30;99.90
1568;DHT22;777;47.156;8.326;2022-08-19T05:33:30;16.30;99.90
1568;DHT22;777;47.156;8.326;2022-08-19T05:35:58;16.30;99.90
1568;DHT22;777;47.156;8.326;2022-08-19T05:38:25;16.40;99.90
1568;DHT22;777;47.156;8.326;2022-08-19T05:40:54;16.30;99.90
1568;DHT22;777;47.156;8.326;2022-08-19T05:43:21;16.40;99.90
1568;DHT22;777;47.156;8.326;2022-08-19T05:45:48;16.30;99.90
1568;DHT22;777;47.156;8.326;2022-08-19T05:48:16;16.30;99.90
1568;DHT22;777;47.156;8.326;2022-08-19T05:50:46;16.30;99.90
1568;DHT22;777;47.156;8.326;2022-08-19T05:53:16;16.30;99.90
1568;DHT22;777;47.156;8.326;2022-08-19T05:55:43;16.40;99.90
1568;DHT22;777;47.156;8.326;2022-08-19T05:58:11;16.40;99.90
1568;DHT22;777;47.156;8.326;2022-08-19T06:00:38;16.50;99.90
1568;DHT22;777;47.156;8.326;2022-08-19T06:03:06;16.50;99.90
1568;DHT22;777;47.156;8.326;2022-08-19T06:05:33;16.60;99.90
1568;DHT22;777;47.156;8.326;2022-08-19T06:08:00;16.70;99.90
1568;DHT22;777;47.156;8.326;2022-08-19T06:10:28;16.60;99.90
1568;DHT22;777;47.156;8.326;2022-08-19T06:12:55;16.60;99.90
1568;DHT22;777;47.156;8.326;2022-08-19T06:15:24;16.60;99.90
1568;DHT22;777;47.156;8.326;2022-08-19T06:17:52;16.60;99.90
1568;DHT22;777;47.156;8.326;2022-08-19T06:20:19;16.50;99.90
1568;DHT22;777;47.156;8.326;2022-08-19T06:22:48;16.50;99.90
1568;DHT22;777;47.156;8.326;2022-08-19T06:25:16;16.50;99.90
1568;DHT22;777;47.156;8.326;2022-08-19T06:27:44;16.50;99.90
1568;DHT22;777;47.156;8.326;2022-08-19T06:30:12;16.60;99.90
1568;DHT22;777;47.156;8.326;2022-08-19T06:32:41;16.50;99.90
1568;DHT22;777;47.156;8.326;2022-08-19T06:35:08;16.50;99.90
1568;DHT22;777;47.156;8.326;2022-08-19T06:37:36;16.50;99.90
1568;DHT22;777;47.156;8.326;2022-08-19T06:40:04;16.50;99.90
1568;DHT22;777;47.156;8.326;2022-08-19T06:42:34;16.40;99.90
1568;DHT22;777;47.156;8.326;2022-08-19T06:45:02;16.50;99.90
1568;DHT22;777;47.156;8.326;2022-08-19T06:47:30;16.50;99.90
1568;DHT22;777;47.156;8.326;2022-08-19T06:50:00;16.40;99.90
1568;DHT22;777;47.156;8.326;2022-08-19T06:52:28;16.40;99.90
1568;DHT22;777;47.156;8.326;2022-08-19T06:54:56;16.50;99.90
1568;DHT22;777;47.156;8.326;2022-08-19T06:57:23;16.40;99.90
1568;DHT22;777;47.156;8.326;2022-08-19T06:59:51;16.40;99.90
1568;DHT22;777;47.156;8.326;2022-08-19T07:02:19;16.40;99.90
1568;DHT22;777;47.156;8.326;2022-08-19T07:04:46;16.40;99.90
1568;DHT22;777;47.156;8.326;2022-08-19T07:07:15;16.40;99.90
1568;DHT22;777;47.156;8.326;2022-08-19T07:09:43;16.40;99.90
1568;DHT22;777;47.156;8.326;2022-08-19T07:12:12;16.30;99.90
1568;DHT22;777;47.156;8.326;2022-08-19T07:14:41;16.20;99.90
1568;DHT22;777;47.156;8.326;2022-08-19T07:17:09;16.20;99.90
1568;DHT22;777;47.156;8.326;2022-08-19T07:19:38;16.30;99.90
1568;DHT22;777;47.156;8.326;2022-08-19T07:22:07;16.30;99.90
1568;DHT22;777;47.156;8.326;2022-08-19T07:24:36;16.30;99.90
1568;DHT22;777;47.156;8.326;2022-08-19T07:27:05;16.20;99.90
1568;DHT22;777;47.156;8.326;2022-08-19T07:29:34;16.20;99.90
1568;DHT22;777;47.156;8.326;2022-08-19T07:32:02;16.20;99.90
1568;DHT22;777;47.156;8.326;2022-08-19T07:34:30;16.20;99.90
1568;DHT22;777;47.156;8.326;2022-08-19T07:37:00;16.20;99.90
1568;DHT22;777;47.156;8.326;2022-08-19T07:39:29;16.30;99.90
1568;DHT22;777;47.156;8.326;2022-08-19T07:41:59;16.30;99.90
1568;DHT22;777;47.156;8.326;2022-08-19T07:44:26;16.30;99.90
1568;DHT22;777;47.156;8.326;2022-08-19T07:46:56;16.30;99.90
1568;DHT22;777;47.156;8.326;2022-08-19T07:49:25;16.20;99.90
1568;DHT22;777;47.156;8.326;2022-08-19T07:51:54;16.20;99.90
1568;DHT22;777;47.156;8.326;2022-08-19T07:54:22;16.20;99.90
1568;DHT22;777;47.156;8.326;2022-08-19T07:56:49;16.20;99.90
1568;DHT22;777;47.156;8.326;2022-08-19T07:59:20;16.10;99.90
1568;DHT22;777;47.156;8.326;2022-08-19T08:01:48;16.10;99.90
1568;DHT22;777;47.156;8.326;2022-08-19T08:04:16;16.00;99.90
1568;DHT22;777;47.156;8.326;2022-08-19T08:07:00;15.90;99.90
1568;DHT22;777;47.156;8.326;2022-08-19T08:09:45;15.80;99.90
1568;DHT22;777;47.156;8.326;2022-08-19T08:12:14;15.70;99.90
1568;DHT22;777;47.156;8.326;2022-08-19T08:14:46;15.70;99.90
1568;DHT22;777;47.156;8.326;2022-08-19T08:17:15;15.60;99.90
1568;DHT22;777;47.156;8.326;2022-08-19T08:19:43;15.70;99.90
1568;DHT22;777;47.156;8.326;2022-08-19T08:22:11;15.70;99.90
1568;DHT22;777;47.156;8.326;2022-08-19T08:25:05;15.70;99.90
1568;DHT22;777;47.156;8.326;2022-08-19T08:27:36;15.70;99.90
1568;DHT22;777;47.156;8.326;2022-08-19T08:30:07;15.70;99.90
1568;DHT22;777;47.156;8.326;2022-08-19T08:32:35;15.80;99.90
1568;DHT22;777;47.156;8.326;2022-08-19T08:35:03;15.80;99.90
1568;DHT22;777;47.156;8.326;2022-08-19T08:37:30;15.70;99.90
1568;DHT22;777;47.156;8.326;2022-08-19T08:39:57;15.80;99.90
1568;DHT22;777;47.156;8.326;2022-08-19T08:42:29;15.80;99.90
1568;DHT22;777;47.156;8.326;2022-08-19T08:45:00;15.90;99.90
1568;DHT22;777;47.156;8.326;2022-08-19T08:47:33;15.90;99.90
1568;DHT22;777;47.156;8.326;2022-08-19T08:50:05;15.90;99.90
1568;DHT22;777;47.156;8.326;2022-08-19T08:52:37;15.90;99.90
1568;DHT22;777;47.156;8.326;2022-08-19T08:55:08;15.90;99.90
1568;DHT22;777;47.156;8.326;2022-08-19T08:57:51;15.90;99.90
1568;DHT22;777;47.156;8.326;2022-08-19T09:00:23;15.90;99.90
1568;DHT22;777;47.156;8.326;2022-08-19T09:02:52;15.90;99.90
1568;DHT22;777;47.156;8.326;2022-08-19T09:05:20;16.00;99.90
1568;DHT22;777;47.156;8.326;2022-08-19T09:07:53;15.90;99.90
1568;DHT22;777;47.156;8.326;2022-08-19T09:10:29;15.90;99.90
1568;DHT22;777;47.156;8.326;2022-08-19T09:13:06;15.80;99.90
1568;DHT22;777;47.156;8.326;2022-08-19T09:15:40;15.80;99.90
1568;DHT22;777;47.156;8.326;2022-08-19T09:18:09;15.70;99.90
1568;DHT22;777;47.156;8.326;2022-08-19T09:20:36;15.60;99.90
1568;DHT22;777;47.156;8.326;2022-08-19T09:23:03;15.60;99.90
1568;DHT22;777;47.156;8.326;2022-08-19T09:25:31;15.60;99.90
1568;DHT22;777;47.156;8.326;2022-08-19T09:28:00;15.60;99.90
1568;DHT22;777;47.156;8.326;2022-08-19T09:30:36;15.60;99.90
1568;DHT22;777;47.156;8.326;2022-08-19T09:33:05;15.70;99.90
1568;DHT22;777;47.156;8.326;2022-08-19T09:35:34;15.70;99.90
1568;DHT22;777;47.156;8.326;2022-08-19T09:38:02;15.70;99.90
1568;DHT22;777;47.156;8.326;2022-08-19T09:40:30;15.60;99.90
1568;DHT22;777;47.156;8.326;2022-08-19T09:42:58;15.60;99.90
1568;DHT22;777;47.156;8.326;2022-08-19T09:45:28;15.70;99.90
1568;DHT22;777;47.156;8.326;2022-08-19T09:47:56;15.70;99.90
1568;DHT22;777;47.156;8.326;2022-08-19T09:50:24;15.70;99.90
1568;DHT22;777;47.156;8.326;2022-08-19T09:52:52;15.70;99.90
1568;DHT22;777;47.156;8.326;2022-08-19T09:55:20;15.70;99.90
1568;DHT22;777;47.156;8.326;2022-08-19T09:57:47;15.70;99.90
1568;DHT22;777;47.156;8.326;2022-08-19T10:00:14;15.70;99.90
1568;DHT22;777;47.156;8.326;2022-08-19T10:02:41;15.80;99.90
1568;DHT22;777;47.156;8.326;2022-08-19T10:05:08;15.90;99.90
1568;DHT22;777;47.156;8.326;2022-08-19T10:07:54;15.90;99.90
1568;DHT22;777;47.156;8.326;2022-08-19T10:10:22;16.00;99.90
1568;DHT22;777;47.156;8.326;2022-08-19T10:12:49;16.00;99.90
1568;DHT22;777;47.156;8.326;2022-08-19T10:15:16;16.00;99.90
1568;DHT22;777;47.156;8.326;2022-08-19T10:17:47;16.00;99.90
1568;DHT22;777;47.156;8.326;2022-08-19T10:20:14;16.00;99.90
1568;DHT22;777;47.156;8.326;2022-08-19T10:22:41;16.10;99.90
1568;DHT22;777;47.156;8.326;2022-08-19T10:25:10;16.10;99.90
1568;DHT22;777;47.156;8.326;2022-08-19T10:27:42;16.10;99.90
1568;DHT22;777;47.156;8.326;2022-08-19T10:30:10;16.00;99.90
1568;DHT22;777;47.156;8.326;2022-08-19T10:32:37;16.00;99.90
1568;DHT22;777;47.156;8.326;2022-08-19T10:35:05;16.10;99.90
1568;DHT22;777;47.156;8.326;2022-08-19T10:37:34;16.10;99.90
1568;DHT22;777;47.156;8.326;2022-08-19T10:40:01;16.10;99.90
1568;DHT22;777;47.156;8.326;2022-08-19T10:42:31;16.20;99.90
1568;DHT22;777;47.156;8.326;2022-08-19T10:44:58;16.20;99.90
1568;DHT22;777;47.156;8.326;2022-08-19T10:47:25;16.20;99.90
1568;DHT22;777;47.156;8.326;2022-08-19T10:49:53;16.20;99.90
1568;DHT22;777;47.156;8.326;2022-08-19T10:52:39;16.20;99.90
1568;DHT22;777;47.156;8.326;2022-08-19T10:55:07;16.30;99.90
1568;DHT22;777;47.156;8.326;2022-08-19T10:57:53;16.30;99.90
1568;DHT22;777;47.156;8.326;2022-08-19T11:00:21;16.40;99.90
1568;DHT22;777;47.156;8.326;2022-08-19T11:02:49;16.40;99.90
1568;DHT22;777;47.156;8.326;2022-08-19T11:05:16;16.40;99.90
1568;DHT22;777;47.156;8.326;2022-08-19T11:07:44;16.50;99.90
1568;DHT22;777;47.156;8.326;2022-08-19T11:10:13;16.60;99.90
1568;DHT22;777;47.156;8.326;2022-08-19T11:12:44;16.50;99.90
1568;DHT22;777;47.156;8.326;2022-08-19T11:15:14;16.50;99.90
1568;DHT22;777;47.156;8.326;2022-08-19T11:17:42;16.50;99.90
1568;DHT22;777;47.156;8.326;2022-08-19T11:20:10;16.50;99.90
1568;DHT22;777;47.156;8.326;2022-08-19T11:22:38;16.50;99.90
1568;DHT22;777;47.156;8.326;2022-08-19T11:25:06;16.50;99.90
1568;DHT22;777;47.156;8.326;2022-08-19T11:27:37;16.50;99.90
1568;DHT22;777;47.156;8.326;2022-08-19T11:30:06;16.60;99.90
1568;DHT22;777;47.156;8.326;2022-08-19T11:32:34;16.60;99.90
1568;DHT22;777;47.156;8.326;2022-08-19T11:35:02;16.70;99.90
1568;DHT22;777;47.156;8.326;2022-08-19T11:37:29;16.70;99.90
1568;DHT22;777;47.156;8.326;2022-08-19T11:39:56;16.80;99.90
1568;DHT22;777;47.156;8.326;2022-08-19T11:42:23;16.60;99.90
1568;DHT22;777;47.156;8.326;2022-08-19T11:45:08;16.60;99.90
1568;DHT22;777;47.156;8.326;2022-08-19T11:47:37;16.70;99.90
1568;DHT22;777;47.156;8.326;2022-08-19T11:50:05;16.70;99.90
1568;DHT22;777;47.156;8.326;2022-08-19T11:52:32;16.70;99.90
1568;DHT22;777;47.156;8.326;2022-08-19T11:54:59;16.80;99.90
1568;DHT22;777;47.156;8.326;2022-08-19T11:57:26;16.80;99.90
1568;DHT22;777;47.156;8.326;2022-08-19T11:59:53;16.90;99.90
1568;DHT22;777;47.156;8.326;2022-08-19T12:02:20;16.90;99.90
1568;DHT22;777;47.156;8.326;2022-08-19T12:04:50;16.90;99.90
1568;DHT22;777;47.156;8.326;2022-08-19T12:07:17;17.00;99.90
1568;DHT22;777;47.156;8.326;2022-08-19T12:09:44;17.10;99.90
1568;DHT22;777;47.156;8.326;2022-08-19T12:12:11;17.30;99.90
1568;DHT22;777;47.156;8.326;2022-08-19T12:14:38;17.40;99.90
1568;DHT22;777;47.156;8.326;2022-08-19T12:17:06;17.40;99.90
1568;DHT22;777;47.156;8.326;2022-08-19T12:19:36;17.50;99.90
1568;DHT22;777;47.156;8.326;2022-08-19T12:22:04;17.50;99.90
1568;DHT22;777;47.156;8.326;2022-08-19T12:24:33;17.40;99.90
1568;DHT22;777;47.156;8.326;2022-08-19T12:27:00;17.40;99.90
1568;DHT22;777;47.156;8.326;2022-08-19T12:29:28;17.40;99.90
1568;DHT22;777;47.156;8.326;2022-08-19T12:31:56;17.50;99.90
1568;DHT22;777;47.156;8.326;2022-08-19T12:34:27;17.40;99.90
1568;DHT22;777;47.156;8.326;2022-08-19T12:36:57;17.40;99.90
1568;DHT22;777;47.156;8.326;2022-08-19T12:39:26;17.40;99.90
1568;DHT22;777;47.156;8.326;2022-08-19T12:41:53;17.30;99.90
1568;DHT22;777;47.156;8.326;2022-08-19T12:44:20;17.30;99.90
1568;DHT22;777;47.156;8.326;2022-08-19T12:46:47;17.20;99.90
1568;DHT22;777;47.156;8.326;2022-08-19T12:49:15;17.30;99.90
1568;DHT22;777;47.156;8.326;2022-08-19T12:51:42;17.30;99.90
1568;DHT22;777;47.156;8.326;2022-08-19T12:54:09;17.30;99.90
1568;DHT22;777;47.156;8.326;2022-08-19T12:56:38;17.40;99.90
1568;DHT22;777;47.156;8.326;2022-08-19T12:59:05;17.50;99.90
1568;DHT22;777;47.156;8.326;2022-08-19T13:01:33;17.60;99.90
1568;DHT22;777;47.156;8.326;2022-08-19T13:04:01;17.60;99.90
1568;DHT22;777;47.156;8.326;2022-08-19T13:06:28;17.80;99.90
1568;DHT22;777;47.156;8.326;2022-08-19T13:08:55;17.80;99.90
1568;DHT22;777;47.156;8.326;2022-08-19T13:11:23;17.70;99.90
1568;DHT22;777;47.156;8.326;2022-08-19T13:13:52;17.60;99.90
1568;DHT22;777;47.156;8.326;2022-08-19T13:16:20;17.60;99.90
1568;DHT22;777;47.156;8.326;2022-08-19T13:18:47;17.60;99.90
1568;DHT22;777;47.156;8.326;2022-08-19T13:21:18;17.50;99.90
1568;DHT22;777;47.156;8.326;2022-08-19T13:23:47;17.50;99.90
1568;DHT22;777;47.156;8.326;2022-08-19T13:26:14;17.40;99.90
1568;DHT22;777;47.156;8.326;2022-08-19T13:28:43;17.40;99.90
1568;DHT22;777;47.156;8.326;2022-08-19T13:31:31;17.40;99.90
1568;DHT22;777;47.156;8.326;2022-08-19T13:34:18;17.40;99.90
1568;DHT22;777;47.156;8.326;2022-08-19T13:36:46;17.50;99.90
1568;DHT22;777;47.156;8.326;2022-08-19T13:39:13;17.50;99.90
1568;DHT22;777;47.156;8.326;2022-08-19T13:41:44;17.60;99.90
1568;DHT22;777;47.156;8.326;2022-08-19T13:44:13;17.70;99.90
1568;DHT22;777;47.156;8.326;2022-08-19T13:46:42;17.80;99.90
1568;DHT22;777;47.156;8.326;2022-08-19T13:49:11;17.90;99.90
1568;DHT22;777;47.156;8.326;2022-08-19T13:51:40;18.00;99.90
1568;DHT22;777;47.156;8.326;2022-08-19T13:54:09;18.10;99.90
1568;DHT22;777;47.156;8.326;2022-08-19T13:56:40;18.30;99.90
1568;DHT22;777;47.156;8.326;2022-08-19T13:59:07;18.40;99.90
1568;DHT22;777;47.156;8.326;2022-08-19T14:01:34;18.50;99.90
1568;DHT22;777;47.156;8.326;2022-08-19T14:04:04;18.40;99.90
1568;DHT22;777;47.156;8.326;2022-08-19T14:06:32;18.40;99.90
1568;DHT22;777;47.156;8.326;2022-08-19T14:08:59;18.60;99.90
1568;DHT22;777;47.156;8.326;2022-08-19T14:11:27;18.70;99.90
1568;DHT22;777;47.156;8.326;2022-08-19T14:13:54;18.90;99.90
1568;DHT22;777;47.156;8.326;2022-08-19T14:16:21;19.10;99.90
1568;DHT22;777;47.156;8.326;2022-08-19T14:18:48;19.10;99.90
1568;DHT22;777;47.156;8.326;2022-08-19T14:21:20;19.10;99.90
1568;DHT22;777;47.156;8.326;2022-08-19T14:23:49;19.20;99.90
1568;DHT22;777;47.156;8.326;2022-08-19T14:26:18;19.30;99.90
1568;DHT22;777;47.156;8.326;2022-08-19T14:28:46;19.40;99.90
1568;DHT22;777;47.156;8.326;2022-08-19T14:31:15;19.20;99.90
1568;DHT22;777;47.156;8.326;2022-08-19T14:33:44;19.30;99.90
1568;DHT22;777;47.156;8.326;2022-08-19T14:36:11;19.10;99.90
1568;DHT22;777;47.156;8.326;2022-08-19T14:38:40;19.00;99.90
1568;DHT22;777;47.156;8.326;2022-08-19T14:41:13;19.00;99.90
1568;DHT22;777;47.156;8.326;2022-08-19T14:43:41;19.10;99.90
1568;DHT22;777;47.156;8.326;2022-08-19T14:46:11;18.90;99.90
1568;DHT22;777;47.156;8.326;2022-08-19T14:48:38;18.80;99.90
1568;DHT22;777;47.156;8.326;2022-08-19T14:51:06;18.70;99.90
1568;DHT22;777;47.156;8.326;2022-08-19T14:53:33;18.70;99.90
1568;DHT22;777;47.156;8.326;2022-08-19T14:56:07;18.80;99.90
1568;DHT22;777;47.156;8.326;2022-08-19T14:58:35;18.70;99.90
1568;DHT22;777;47.156;8.326;2022-08-19T15:01:02;18.60;99.90
1568;DHT22;777;47.156;8.326;2022-08-19T15:03:30;18.60;99.90
1568;DHT22;777;47.156;8.326;2022-08-19T15:05:59;18.50;99.90
1568;DHT22;777;47.156;8.326;2022-08-19T15:08:28;18.50;99.90
1568;DHT22;777;47.156;8.326;2022-08-19T15:10:56;18.40;99.90
1568;DHT22;777;47.156;8.326;2022-08-19T15:13:27;18.40;99.90
1568;DHT22;777;47.156;8.326;2022-08-19T15:15:54;18.40;99.90
1568;DHT22;777;47.156;8.326;2022-08-19T15:18:23;18.30;99.90
1568;DHT22;777;47.156;8.326;2022-08-19T15:20:50;18.20;99.90
1568;DHT22;777;47.156;8.326;2022-08-19T15:23:19;18.20;99.90
1568;DHT22;777;47.156;8.326;2022-08-19T15:25:46;18.00;99.90
1568;DHT22;777;47.156;8.326;2022-08-19T15:28:13;17.80;99.90
1568;DHT22;777;47.156;8.326;2022-08-19T15:30:43;17.70;99.90
1568;DHT22;777;47.156;8.326;2022-08-19T15:33:11;17.70;99.90
1568;DHT22;777;47.156;8.326;2022-08-19T15:35:40;17.60;99.90
1568;DHT22;777;47.156;8.326;2022-08-19T15:38:08;17.50;99.90
1568;DHT22;777;47.156;8.326;2022-08-19T15:40:36;17.50;99.90
1568;DHT22;777;47.156;8.326;2022-08-19T15:43:03;17.50;99.90
1568;DHT22;777;47.156;8.326;2022-08-19T15:45:30;17.50;99.90
1568;DHT22;777;47.156;8.326;2022-08-19T15:48:00;17.40;99.90
1568;DHT22;777;47.156;8.326;2022-08-19T15:50:28;17.40;99.90
1568;DHT22;777;47.156;8.326;2022-08-19T15:52:58;17.30;99.90
1568;DHT22;777;47.156;8.326;2022-08-19T15:55:28;17.40;99.90
1568;DHT22;777;47.156;8.326;2022-08-19T15:57:57;17.30;99.90
1568;DHT22;777;47.156;8.326;2022-08-19T16:00:42;17.20;99.90
1568;DHT22;777;47.156;8.326;2022-08-19T16:03:28;17.20;99.90
1568;DHT22;777;47.156;8.326;2022-08-19T16:06:12;17.30;99.90
1568;DHT22;777;47.156;8.326;2022-08-19T16:08:52;17.20;99.90
1568;DHT22;777;47.156;8.326;2022-08-19T16:11:20;17.20;99.90
1568;DHT22;777;47.156;8.326;2022-08-19T16:13:50;17.30;99.90
1568;DHT22;777;47.156;8.326;2022-08-19T16:16:20;17.20;99.90
1568;DHT22;777;47.156;8.326;2022-08-19T16:18:48;17.20;99.90
1568;DHT22;777;47.156;8.326;2022-08-19T16:21:19;17.30;99.90
1568;DHT22;777;47.156;8.326;2022-08-19T16:23:47;17.20;99.90
1568;DHT22;777;47.156;8.326;2022-08-19T16:26:15;17.20;99.90
1568;DHT22;777;47.156;8.326;2022-08-19T16:28:45;17.20;99.90